Richfield, Nebraska
Current Conditions -  °F | °C
As of 4:35 PM on Thursday 20 Nov 2014 (Local Time) from KMLE Reporting Station
Clear Clear  
Wind Chill: 30°   Ceiling: Unl
Heat Index: 30°   Visibility: 10mi
Dew Point: 18°   Wind: 0mph
Humidity: 62%   Direction: NA
Pressure: 30.2"   Gusts: NA
Location:  41.11°N, 96.07°W
Report Text: KMLE 202235Z AUTO 00000KT 10SM CLR M01/M08 A3020 RMK AO2 T10121077
Loading
Personal Weather Stations






























Interactive Weather Map New forecast layout! Learn more

10-Day Weather Forecast

Advertisements
Track Severe Weather on mobile